sensor_id;sensor_type;location;lat;lon;timestamp;P1;durP1;ratioP1;P2;durP2;ratioP2
63016;SDS011;50274;45.640;11.756;2022-10-29T00:02:00;12.93;;;8.13;;
63016;SDS011;50274;45.640;11.756;2022-10-29T00:04:26;12.80;;;7.40;;
63016;SDS011;50274;45.640;11.756;2022-10-29T00:06:52;13.27;;;8.10;;
63016;SDS011;50274;45.640;11.756;2022-10-29T00:09:18;15.80;;;7.60;;
63016;SDS011;50274;45.640;11.756;2022-10-29T00:11:43;15.83;;;7.43;;
63016;SDS011;50274;45.640;11.756;2022-10-29T00:14:09;13.75;;;6.88;;
63016;SDS011;50274;45.640;11.756;2022-10-29T00:16:36;13.60;;;6.83;;
63016;SDS011;50274;45.640;11.756;2022-10-29T00:19:03;12.88;;;7.28;;
63016;SDS011;50274;45.640;11.756;2022-10-29T00:21:31;13.38;;;7.07;;
63016;SDS011;50274;45.640;11.756;2022-10-29T00:23:58;12.73;;;7.53;;
63016;SDS011;50274;45.640;11.756;2022-10-29T00:26:26;13.85;;;7.13;;
63016;SDS011;50274;45.640;11.756;2022-10-29T00:28:53;11.50;;;6.77;;
63016;SDS011;50274;45.640;11.756;2022-10-29T00:31:20;12.73;;;6.47;;
63016;SDS011;50274;45.640;11.756;2022-10-29T00:33:48;12.63;;;6.85;;
63016;SDS011;50274;45.640;11.756;2022-10-29T00:36:16;12.77;;;7.32;;
63016;SDS011;50274;45.640;11.756;2022-10-29T00:38:44;12.75;;;7.15;;
63016;SDS011;50274;45.640;11.756;2022-10-29T00:41:11;12.80;;;6.83;;
63016;SDS011;50274;45.640;11.756;2022-10-29T00:43:39;10.75;;;6.68;;
63016;SDS011;50274;45.640;11.756;2022-10-29T00:46:08;13.40;;;7.53;;
63016;SDS011;50274;45.640;11.756;2022-10-29T00:48:47;10.88;;;6.65;;
63016;SDS011;50274;45.640;11.756;2022-10-29T00:51:16;13.02;;;7.03;;
63016;SDS011;50274;45.640;11.756;2022-10-29T00:54:05;13.83;;;6.77;;
63016;SDS011;50274;45.640;11.756;2022-10-29T00:56:31;11.77;;;6.32;;
63016;SDS011;50274;45.640;11.756;2022-10-29T00:59:01;17.02;;;7.50;;
63016;SDS011;50274;45.640;11.756;2022-10-29T01:01:29;11.13;;;6.57;;
63016;SDS011;50274;45.640;11.756;2022-10-29T01:03:55;11.00;;;6.67;;
63016;SDS011;50274;45.640;11.756;2022-10-29T01:06:24;13.55;;;7.22;;
63016;SDS011;50274;45.640;11.756;2022-10-29T01:08:52;11.68;;;6.80;;
63016;SDS011;50274;45.640;11.756;2022-10-29T01:17:45;11.70;;;7.27;;
63016;SDS011;50274;45.640;11.756;2022-10-29T01:20:40;13.05;;;6.68;;
63016;SDS011;50274;45.640;11.756;2022-10-29T01:29:32;12.65;;;7.68;;
63016;SDS011;50274;45.640;11.756;2022-10-29T01:32:10;13.37;;;7.37;;
63016;SDS011;50274;45.640;11.756;2022-10-29T01:34:45;15.65;;;7.68;;
63016;SDS011;50274;45.640;11.756;2022-10-29T01:42:25;12.80;;;7.47;;
63016;SDS011;50274;45.640;11.756;2022-10-29T01:47:59;13.10;;;7.28;;
63016;SDS011;50274;45.640;11.756;2022-10-29T01:50:29;12.52;;;7.18;;
63016;SDS011;50274;45.640;11.756;2022-10-29T01:52:56;11.77;;;7.18;;
63016;SDS011;50274;45.640;11.756;2022-10-29T01:55:27;10.00;;;6.20;;
63016;SDS011;50274;45.640;11.756;2022-10-29T01:57:54;13.43;;;6.60;;
63016;SDS011;50274;45.640;11.756;2022-10-29T02:00:20;12.07;;;7.22;;
63016;SDS011;50274;45.640;11.756;2022-10-29T02:05:48;11.82;;;7.07;;
63016;SDS011;50274;45.640;11.756;2022-10-29T02:13:44;11.55;;;6.60;;
63016;SDS011;50274;45.640;11.756;2022-10-29T02:16:14;14.63;;;6.82;;
63016;SDS011;50274;45.640;11.756;2022-10-29T02:18:42;11.43;;;7.18;;
63016;SDS011;50274;45.640;11.756;2022-10-29T02:21:09;11.65;;;7.00;;
63016;SDS011;50274;45.640;11.756;2022-10-29T02:23:35;11.13;;;6.93;;
63016;SDS011;50274;45.640;11.756;2022-10-29T02:26:01;11.50;;;5.90;;
63016;SDS011;50274;45.640;11.756;2022-10-29T02:28:27;10.45;;;6.18;;
63016;SDS011;50274;45.640;11.756;2022-10-29T02:30:53;12.67;;;6.90;;
63016;SDS011;50274;45.640;11.756;2022-10-29T02:33:18;13.38;;;7.05;;
63016;SDS011;50274;45.640;11.756;2022-10-29T02:35:45;12.40;;;7.45;;
63016;SDS011;50274;45.640;11.756;2022-10-29T02:38:11;11.00;;;6.47;;
63016;SDS011;50274;45.640;11.756;2022-10-29T02:40:37;10.02;;;6.32;;
63016;SDS011;50274;45.640;11.756;2022-10-29T02:43:02;11.13;;;6.87;;
63016;SDS011;50274;45.640;11.756;2022-10-29T02:45:28;11.85;;;6.60;;
63016;SDS011;50274;45.640;11.756;2022-10-29T02:47:54;12.00;;;6.80;;
63016;SDS011;50274;45.640;11.756;2022-10-29T02:50:20;10.15;;;6.00;;
63016;SDS011;50274;45.640;11.756;2022-10-29T02:52:45;11.30;;;6.28;;
63016;SDS011;50274;45.640;11.756;2022-10-29T02:55:14;10.43;;;6.33;;
63016;SDS011;50274;45.640;11.756;2022-10-29T02:57:41;10.40;;;6.30;;
63016;SDS011;50274;45.640;11.756;2022-10-29T03:00:09;12.15;;;6.65;;
63016;SDS011;50274;45.640;11.756;2022-10-29T03:02:35;10.90;;;6.30;;
63016;SDS011;50274;45.640;11.756;2022-10-29T03:05:01;12.27;;;7.03;;
63016;SDS011;50274;45.640;11.756;2022-10-29T03:07:27;12.95;;;7.25;;
63016;SDS011;50274;45.640;11.756;2022-10-29T03:09:58;11.85;;;6.82;;
63016;SDS011;50274;45.640;11.756;2022-10-29T03:12:24;10.90;;;6.50;;
63016;SDS011;50274;45.640;11.756;2022-10-29T03:14:49;10.13;;;6.28;;
63016;SDS011;50274;45.640;11.756;2022-10-29T03:17:15;10.80;;;5.80;;
63016;SDS011;50274;45.640;11.756;2022-10-29T03:19:41;11.17;;;6.20;;
63016;SDS011;50274;45.640;11.756;2022-10-29T03:22:07;9.57;;;6.03;;
63016;SDS011;50274;45.640;11.756;2022-10-29T03:24:33;11.90;;;6.63;;
63016;SDS011;50274;45.640;11.756;2022-10-29T03:26:59;10.50;;;6.50;;
63016;SDS011;50274;45.640;11.756;2022-10-29T03:29:24;12.27;;;6.38;;
63016;SDS011;50274;45.640;11.756;2022-10-29T03:31:50;12.57;;;6.97;;
63016;SDS011;50274;45.640;11.756;2022-10-29T03:34:16;10.60;;;6.60;;
63016;SDS011;50274;45.640;11.756;2022-10-29T03:36:42;9.93;;;5.93;;
63016;SDS011;50274;45.640;11.756;2022-10-29T03:39:07;12.02;;;6.63;;
63016;SDS011;50274;45.640;11.756;2022-10-29T03:41:33;12.07;;;6.80;;
63016;SDS011;50274;45.640;11.756;2022-10-29T03:43:59;9.32;;;6.13;;
63016;SDS011;50274;45.640;11.756;2022-10-29T03:46:25;13.25;;;6.30;;
63016;SDS011;50274;45.640;11.756;2022-10-29T03:48:50;13.67;;;7.30;;
63016;SDS011;50274;45.640;11.756;2022-10-29T03:51:16;11.15;;;6.53;;
63016;SDS011;50274;45.640;11.756;2022-10-29T03:53:42;10.03;;;6.03;;
63016;SDS011;50274;45.640;11.756;2022-10-29T03:56:11;10.52;;;6.40;;
63016;SDS011;50274;45.640;11.756;2022-10-29T03:58:37;10.90;;;6.40;;
63016;SDS011;50274;45.640;11.756;2022-10-29T04:01:04;12.33;;;6.43;;
63016;SDS011;50274;45.640;11.756;2022-10-29T04:03:31;11.60;;;5.55;;
63016;SDS011;50274;45.640;11.756;2022-10-29T04:05:58;12.95;;;5.68;;
63016;SDS011;50274;45.640;11.756;2022-10-29T04:08:25;10.52;;;5.75;;
63016;SDS011;50274;45.640;11.756;2022-10-29T04:10:52;10.30;;;5.95;;
63016;SDS011;50274;45.640;11.756;2022-10-29T04:13:18;11.93;;;5.90;;
63016;SDS011;50274;45.640;11.756;2022-10-29T04:15:44;11.35;;;6.25;;
63016;SDS011;50274;45.640;11.756;2022-10-29T04:18:11;11.60;;;6.07;;
63016;SDS011;50274;45.640;11.756;2022-10-29T04:20:37;12.77;;;6.25;;
63016;SDS011;50274;45.640;11.756;2022-10-29T04:23:04;9.88;;;5.65;;
63016;SDS011;50274;45.640;11.756;2022-10-29T04:25:30;11.23;;;5.60;;
63016;SDS011;50274;45.640;11.756;2022-10-29T04:27:56;16.80;;;6.63;;
63016;SDS011;50274;45.640;11.756;2022-10-29T04:30:22;9.57;;;5.78;;
63016;SDS011;50274;45.640;11.756;2022-10-29T04:32:49;12.25;;;6.00;;
63016;SDS011;50274;45.640;11.756;2022-10-29T04:35:15;10.50;;;6.07;;
63016;SDS011;50274;45.640;11.756;2022-10-29T04:37:41;10.77;;;6.03;;
63016;SDS011;50274;45.640;11.756;2022-10-29T04:40:07;11.73;;;5.65;;
63016;SDS011;50274;45.640;11.756;2022-10-29T04:42:36;10.32;;;6.13;;
63016;SDS011;50274;45.640;11.756;2022-10-29T04:45:04;12.13;;;5.63;;
63016;SDS011;50274;45.640;11.756;2022-10-29T04:47:31;12.05;;;6.25;;
63016;SDS011;50274;45.640;11.756;2022-10-29T04:49:56;11.82;;;7.00;;
63016;SDS011;50274;45.640;11.756;2022-10-29T04:52:22;9.60;;;5.90;;
63016;SDS011;50274;45.640;11.756;2022-10-29T04:54:48;12.60;;;5.85;;
63016;SDS011;50274;45.640;11.756;2022-10-29T04:57:14;12.45;;;6.03;;
63016;SDS011;50274;45.640;11.756;2022-10-29T04:59:40;11.70;;;5.82;;
63016;SDS011;50274;45.640;11.756;2022-10-29T05:02:06;12.33;;;6.53;;
63016;SDS011;50274;45.640;11.756;2022-10-29T05:04:32;10.20;;;5.55;;
63016;SDS011;50274;45.640;11.756;2022-10-29T05:06:58;13.83;;;6.47;;
63016;SDS011;50274;45.640;11.756;2022-10-29T05:09:23;10.45;;;5.90;;
63016;SDS011;50274;45.640;11.756;2022-10-29T05:11:49;11.20;;;5.90;;
63016;SDS011;50274;45.640;11.756;2022-10-29T05:14:15;11.00;;;5.90;;
63016;SDS011;50274;45.640;11.756;2022-10-29T05:16:41;12.15;;;6.90;;
63016;SDS011;50274;45.640;11.756;2022-10-29T05:19:07;12.30;;;6.93;;
63016;SDS011;50274;45.640;11.756;2022-10-29T05:21:33;9.98;;;5.72;;
63016;SDS011;50274;45.640;11.756;2022-10-29T05:23:58;11.25;;;5.63;;
63016;SDS011;50274;45.640;11.756;2022-10-29T05:26:24;10.20;;;5.97;;
63016;SDS011;50274;45.640;11.756;2022-10-29T05:28:50;10.15;;;5.57;;
63016;SDS011;50274;45.640;11.756;2022-10-29T05:31:16;11.43;;;5.43;;
63016;SDS011;50274;45.640;11.756;2022-10-29T05:33:43;10.07;;;5.27;;
63016;SDS011;50274;45.640;11.756;2022-10-29T05:36:09;10.38;;;5.43;;
63016;SDS011;50274;45.640;11.756;2022-10-29T05:38:35;10.85;;;5.68;;
63016;SDS011;50274;45.640;11.756;2022-10-29T05:41:01;10.60;;;5.88;;
63016;SDS011;50274;45.640;11.756;2022-10-29T05:43:26;9.60;;;5.83;;
63016;SDS011;50274;45.640;11.756;2022-10-29T05:45:52;9.63;;;5.53;;
63016;SDS011;50274;45.640;11.756;2022-10-29T05:48:18;9.88;;;4.97;;
63016;SDS011;50274;45.640;11.756;2022-10-29T05:50:44;9.23;;;5.65;;
63016;SDS011;50274;45.640;11.756;2022-10-29T05:53:13;10.43;;;5.20;;
63016;SDS011;50274;45.640;11.756;2022-10-29T05:55:40;10.48;;;4.97;;
63016;SDS011;50274;45.640;11.756;2022-10-29T05:58:08;8.98;;;5.00;;
63016;SDS011;50274;45.640;11.756;2022-10-29T06:00:36;8.77;;;5.07;;
63016;SDS011;50274;45.640;11.756;2022-10-29T06:03:17;9.52;;;5.40;;
63016;SDS011;50274;45.640;11.756;2022-10-29T06:05:48;8.77;;;5.03;;
63016;SDS011;50274;45.640;11.756;2022-10-29T06:08:14;10.57;;;5.47;;
63016;SDS011;50274;45.640;11.756;2022-10-29T06:10:40;11.25;;;5.20;;
63016;SDS011;50274;45.640;11.756;2022-10-29T06:13:10;10.82;;;5.30;;
63016;SDS011;50274;45.640;11.756;2022-10-29T06:15:36;8.43;;;4.80;;
63016;SDS011;50274;45.640;11.756;2022-10-29T06:18:02;8.90;;;4.97;;
63016;SDS011;50274;45.640;11.756;2022-10-29T06:20:28;9.95;;;5.40;;
63016;SDS011;50274;45.640;11.756;2022-10-29T06:22:57;12.80;;;5.37;;
63016;SDS011;50274;45.640;11.756;2022-10-29T06:25:26;10.07;;;5.28;;
63016;SDS011;50274;45.640;11.756;2022-10-29T06:28:02;10.05;;;5.53;;
63016;SDS011;50274;45.640;11.756;2022-10-29T06:30:30;9.70;;;5.50;;
63016;SDS011;50274;45.640;11.756;2022-10-29T06:32:58;11.77;;;6.93;;
63016;SDS011;50274;45.640;11.756;2022-10-29T06:35:24;10.73;;;6.00;;
63016;SDS011;50274;45.640;11.756;2022-10-29T06:37:50;12.57;;;6.97;;
63016;SDS011;50274;45.640;11.756;2022-10-29T06:40:16;12.45;;;5.70;;
63016;SDS011;50274;45.640;11.756;2022-10-29T06:42:42;11.20;;;5.60;;
63016;SDS011;50274;45.640;11.756;2022-10-29T06:45:09;11.23;;;5.53;;
63016;SDS011;50274;45.640;11.756;2022-10-29T06:47:39;9.73;;;5.57;;
63016;SDS011;50274;45.640;11.756;2022-10-29T06:50:10;10.05;;;6.10;;
63016;SDS011;50274;45.640;11.756;2022-10-29T06:52:37;10.65;;;5.38;;
63016;SDS011;50274;45.640;11.756;2022-10-29T06:55:03;12.13;;;6.30;;
63016;SDS011;50274;45.640;11.756;2022-10-29T06:57:30;9.32;;;5.55;;
63016;SDS011;50274;45.640;11.756;2022-10-29T06:59:55;11.50;;;5.93;;
63016;SDS011;50274;45.640;11.756;2022-10-29T07:02:22;12.40;;;7.05;;
63016;SDS011;50274;45.640;11.756;2022-10-29T07:04:48;15.03;;;6.60;;
63016;SDS011;50274;45.640;11.756;2022-10-29T07:07:14;11.07;;;5.93;;
63016;SDS011;50274;45.640;11.756;2022-10-29T07:09:41;11.52;;;6.55;;
63016;SDS011;50274;45.640;11.756;2022-10-29T07:12:09;14.82;;;7.65;;
63016;SDS011;50274;45.640;11.756;2022-10-29T07:14:35;12.65;;;7.70;;
63016;SDS011;50274;45.640;11.756;2022-10-29T07:17:01;13.37;;;7.03;;
63016;SDS011;50274;45.640;11.756;2022-10-29T07:19:27;14.20;;;7.80;;
63016;SDS011;50274;45.640;11.756;2022-10-29T07:21:53;15.23;;;7.87;;
63016;SDS011;50274;45.640;11.756;2022-10-29T07:24:19;15.63;;;7.60;;
63016;SDS011;50274;45.640;11.756;2022-10-29T07:26:44;13.95;;;7.90;;
63016;SDS011;50274;45.640;11.756;2022-10-29T07:29:10;14.07;;;7.60;;
63016;SDS011;50274;45.640;11.756;2022-10-29T07:31:36;18.48;;;9.02;;
63016;SDS011;50274;45.640;11.756;2022-10-29T07:34:02;19.50;;;9.97;;
63016;SDS011;50274;45.640;11.756;2022-10-29T07:36:31;15.35;;;8.18;;
63016;SDS011;50274;45.640;11.756;2022-10-29T07:38:57;14.73;;;8.32;;
63016;SDS011;50274;45.640;11.756;2022-10-29T07:41:26;15.77;;;9.13;;
63016;SDS011;50274;45.640;11.756;2022-10-29T07:43:51;17.33;;;8.93;;
63016;SDS011;50274;45.640;11.756;2022-10-29T07:46:17;16.58;;;8.25;;
63016;SDS011;50274;45.640;11.756;2022-10-29T07:48:43;15.37;;;8.40;;
63016;SDS011;50274;45.640;11.756;2022-10-29T07:51:09;16.97;;;8.53;;
63016;SDS011;50274;45.640;11.756;2022-10-29T07:53:35;16.92;;;8.80;;
63016;SDS011;50274;45.640;11.756;2022-10-29T07:56:00;16.47;;;8.67;;
63016;SDS011;50274;45.640;11.756;2022-10-29T07:58:26;12.25;;;7.90;;
63016;SDS011;50274;45.640;11.756;2022-10-29T08:00:52;15.18;;;9.05;;
63016;SDS011;50274;45.640;11.756;2022-10-29T08:03:18;17.63;;;9.00;;
63016;SDS011;50274;45.640;11.756;2022-10-29T08:05:44;20.25;;;9.55;;
63016;SDS011;50274;45.640;11.756;2022-10-29T08:08:13;16.92;;;8.88;;
63016;SDS011;50274;45.640;11.756;2022-10-29T08:10:39;17.60;;;9.10;;
63016;SDS011;50274;45.640;11.756;2022-10-29T08:13:05;16.37;;;10.50;;
63016;SDS011;50274;45.640;11.756;2022-10-29T08:15:31;17.58;;;9.43;;
63016;SDS011;50274;45.640;11.756;2022-10-29T08:17:59;17.75;;;9.75;;
63016;SDS011;50274;45.640;11.756;2022-10-29T08:20:25;18.85;;;9.80;;
63016;SDS011;50274;45.640;11.756;2022-10-29T08:22:52;13.82;;;8.23;;
63016;SDS011;50274;45.640;11.756;2022-10-29T08:25:21;15.80;;;9.63;;
63016;SDS011;50274;45.640;11.756;2022-10-29T08:27:57;17.90;;;9.65;;
63016;SDS011;50274;45.640;11.756;2022-10-29T08:30:27;16.48;;;8.30;;
63016;SDS011;50274;45.640;11.756;2022-10-29T08:32:54;20.42;;;10.13;;
63016;SDS011;50274;45.640;11.756;2022-10-29T08:35:20;16.55;;;10.05;;
63016;SDS011;50274;45.640;11.756;2022-10-29T08:37:45;19.40;;;9.93;;
63016;SDS011;50274;45.640;11.756;2022-10-29T08:40:26;17.08;;;10.18;;
63016;SDS011;50274;45.640;11.756;2022-10-29T08:45:52;17.00;;;9.88;;
63016;SDS011;50274;45.640;11.756;2022-10-29T08:48:27;18.30;;;9.00;;
63016;SDS011;50274;45.640;11.756;2022-10-29T08:53:45;17.27;;;8.82;;
63016;SDS011;50274;45.640;11.756;2022-10-29T08:56:17;14.30;;;9.02;;
63016;SDS011;50274;45.640;11.756;2022-10-29T09:01:37;18.13;;;7.97;;
63016;SDS011;50274;45.640;11.756;2022-10-29T09:04:15;14.45;;;8.48;;
63016;SDS011;50274;45.640;11.756;2022-10-29T09:06:50;16.65;;;9.75;;
63016;SDS011;50274;45.640;11.756;2022-10-29T09:15:29;14.23;;;7.80;;
63016;SDS011;50274;45.640;11.756;2022-10-29T09:24:10;16.48;;;7.57;;
63016;SDS011;50274;45.640;11.756;2022-10-29T09:29:38;15.80;;;8.13;;
63016;SDS011;50274;45.640;11.756;2022-10-29T09:32:25;13.05;;;8.13;;
63016;SDS011;50274;45.640;11.756;2022-10-29T09:37:53;14.98;;;8.27;;
63016;SDS011;50274;45.640;11.756;2022-10-29T09:42:54;14.20;;;8.70;;
63016;SDS011;50274;45.640;11.756;2022-10-29T09:45:28;18.90;;;9.10;;
63016;SDS011;50274;45.640;11.756;2022-10-29T09:48:16;15.20;;;7.78;;
63016;SDS011;50274;45.640;11.756;2022-10-29T09:53:32;20.50;;;9.55;;
63016;SDS011;50274;45.640;11.756;2022-10-29T09:55:58;19.00;;;8.80;;
63016;SDS011;50274;45.640;11.756;2022-10-29T09:58:26;16.33;;;8.30;;
63016;SDS011;50274;45.640;11.756;2022-10-29T10:00:54;14.30;;;7.40;;
63016;SDS011;50274;45.640;11.756;2022-10-29T10:06:20;14.55;;;7.60;;
63016;SDS011;50274;45.640;11.756;2022-10-29T10:08:59;12.73;;;7.87;;
63016;SDS011;50274;45.640;11.756;2022-10-29T10:11:48;17.00;;;11.07;;
63016;SDS011;50274;45.640;11.756;2022-10-29T10:14:21;17.58;;;10.23;;
63016;SDS011;50274;45.640;11.756;2022-10-29T10:16:56;16.77;;;8.13;;
63016;SDS011;50274;45.640;11.756;2022-10-29T10:19:23;14.20;;;7.27;;
63016;SDS011;50274;45.640;11.756;2022-10-29T10:22:04;17.17;;;10.10;;
63016;SDS011;50274;45.640;11.756;2022-10-29T10:24:30;12.95;;;7.75;;
63016;SDS011;50274;45.640;11.756;2022-10-29T10:26:58;16.92;;;7.80;;
63016;SDS011;50274;45.640;11.756;2022-10-29T10:29:25;14.02;;;7.75;;
63016;SDS011;50274;45.640;11.756;2022-10-29T10:34:21;19.85;;;10.10;;
63016;SDS011;50274;45.640;11.756;2022-10-29T10:37:01;16.58;;;8.60;;
63016;SDS011;50274;45.640;11.756;2022-10-29T10:39:35;15.15;;;8.20;;
63016;SDS011;50274;45.640;11.756;2022-10-29T10:42:02;17.55;;;9.93;;
63016;SDS011;50274;45.640;11.756;2022-10-29T10:44:51;16.97;;;9.37;;
63016;SDS011;50274;45.640;11.756;2022-10-29T10:47:21;18.45;;;9.15;;
63016;SDS011;50274;45.640;11.756;2022-10-29T10:49:50;23.65;;;9.77;;
63016;SDS011;50274;45.640;11.756;2022-10-29T10:52:18;20.27;;;9.60;;
63016;SDS011;50274;45.640;11.756;2022-10-29T10:54:59;17.13;;;9.35;;
63016;SDS011;50274;45.640;11.756;2022-10-29T10:57:34;17.77;;;8.57;;
63016;SDS011;50274;45.640;11.756;2022-10-29T11:05:19;12.27;;;7.55;;
63016;SDS011;50274;45.640;11.756;2022-10-29T11:10:36;15.87;;;8.60;;
63016;SDS011;50274;45.640;11.756;2022-10-29T11:13:30;15.95;;;9.02;;
63016;SDS011;50274;45.640;11.756;2022-10-29T11:15:59;22.27;;;12.77;;
63016;SDS011;50274;45.640;11.756;2022-10-29T11:18:35;20.25;;;9.57;;
63016;SDS011;50274;45.640;11.756;2022-10-29T11:21:13;17.92;;;8.98;;
63016;SDS011;50274;45.640;11.756;2022-10-29T11:24:14;13.37;;;8.33;;
63016;SDS011;50274;45.640;11.756;2022-10-29T11:34:47;25.17;;;14.13;;
63016;SDS011;50274;45.640;11.756;2022-10-29T11:37:20;22.77;;;13.03;;
63016;SDS011;50274;45.640;11.756;2022-10-29T11:42:24;17.42;;;10.38;;
63016;SDS011;50274;45.640;11.756;2022-10-29T11:44:50;24.92;;;14.05;;
63016;SDS011;50274;45.640;11.756;2022-10-29T11:47:19;24.13;;;12.70;;
63016;SDS011;50274;45.640;11.756;2022-10-29T11:50:19;19.33;;;9.93;;
63016;SDS011;50274;45.640;11.756;2022-10-29T11:53:11;25.23;;;14.50;;
63016;SDS011;50274;45.640;11.756;2022-10-29T11:58:41;23.10;;;12.18;;
63016;SDS011;50274;45.640;11.756;2022-10-29T12:03:52;21.57;;;12.30;;
63016;SDS011;50274;45.640;11.756;2022-10-29T12:11:55;19.52;;;10.27;;
63016;SDS011;50274;45.640;11.756;2022-10-29T12:14:29;18.52;;;9.20;;
63016;SDS011;50274;45.640;11.756;2022-10-29T12:17:05;19.47;;;9.37;;
63016;SDS011;50274;45.640;11.756;2022-10-29T12:27:58;15.98;;;9.10;;
63016;SDS011;50274;45.640;11.756;2022-10-29T12:30:50;18.80;;;10.63;;
63016;SDS011;50274;45.640;11.756;2022-10-29T12:33:42;24.05;;;12.15;;
63016;SDS011;50274;45.640;11.756;2022-10-29T12:38:58;15.98;;;9.90;;
63016;SDS011;50274;45.640;11.756;2022-10-29T12:44:02;19.07;;;10.40;;
63016;SDS011;50274;45.640;11.756;2022-10-29T12:46:47;19.08;;;11.63;;
63016;SDS011;50274;45.640;11.756;2022-10-29T12:54:48;19.52;;;9.98;;
63016;SDS011;50274;45.640;11.756;2022-10-29T12:57:18;13.70;;;8.87;;
63016;SDS011;50274;45.640;11.756;2022-10-29T12:59:53;18.65;;;8.90;;
63016;SDS011;50274;45.640;11.756;2022-10-29T13:07:34;16.20;;;9.80;;
63016;SDS011;50274;45.640;11.756;2022-10-29T13:15:20;19.70;;;10.70;;
63016;SDS011;50274;45.640;11.756;2022-10-29T13:17:50;20.73;;;11.38;;
63016;SDS011;50274;45.640;11.756;2022-10-29T13:20:23;17.27;;;10.63;;
63016;SDS011;50274;45.640;11.756;2022-10-29T13:23:02;20.90;;;10.73;;
63016;SDS011;50274;45.640;11.756;2022-10-29T13:25:55;21.35;;;12.52;;
63016;SDS011;50274;45.640;11.756;2022-10-29T13:30:49;20.00;;;10.33;;
63016;SDS011;50274;45.640;11.756;2022-10-29T13:35:55;16.15;;;8.98;;
63016;SDS011;50274;45.640;11.756;2022-10-29T13:38:41;18.88;;;11.15;;
63016;SDS011;50274;45.640;11.756;2022-10-29T13:43:51;16.38;;;9.60;;
63016;SDS011;50274;45.640;11.756;2022-10-29T13:46:59;18.33;;;9.48;;
63016;SDS011;50274;45.640;11.756;2022-10-29T13:49:31;16.80;;;9.07;;
63016;SDS011;50274;45.640;11.756;2022-10-29T13:52:04;19.27;;;10.85;;
63016;SDS011;50274;45.640;11.756;2022-10-29T13:57:15;17.23;;;9.90;;
63016;SDS011;50274;45.640;11.756;2022-10-29T13:59:47;19.10;;;10.07;;
63016;SDS011;50274;45.640;11.756;2022-10-29T14:02:31;15.45;;;8.60;;
63016;SDS011;50274;45.640;11.756;2022-10-29T14:10:31;15.25;;;8.15;;
63016;SDS011;50274;45.640;11.756;2022-10-29T14:16:06;18.77;;;8.15;;
63016;SDS011;50274;45.640;11.756;2022-10-29T14:21:23;15.60;;;7.80;;
63016;SDS011;50274;45.640;11.756;2022-10-29T14:26:19;11.75;;;6.15;;
63016;SDS011;50274;45.640;11.756;2022-10-29T14:28:47;12.45;;;6.13;;
63016;SDS011;50274;45.640;11.756;2022-10-29T14:31:14;13.95;;;6.78;;
63016;SDS011;50274;45.640;11.756;2022-10-29T14:33:42;13.53;;;6.27;;
63016;SDS011;50274;45.640;11.756;2022-10-29T14:36:38;14.70;;;6.93;;
63016;SDS011;50274;45.640;11.756;2022-10-29T14:39:22;15.43;;;7.05;;
63016;SDS011;50274;45.640;11.756;2022-10-29T14:41:53;12.55;;;6.20;;
63016;SDS011;50274;45.640;11.756;2022-10-29T14:44:32;15.30;;;7.22;;
63016;SDS011;50274;45.640;11.756;2022-10-29T14:47:05;12.27;;;6.30;;
63016;SDS011;50274;45.640;11.756;2022-10-29T14:49:42;11.60;;;5.78;;
63016;SDS011;50274;45.640;11.756;2022-10-29T14:54:57;16.65;;;6.53;;
63016;SDS011;50274;45.640;11.756;2022-10-29T14:57:27;13.18;;;6.70;;
63016;SDS011;50274;45.640;11.756;2022-10-29T14:59:58;12.50;;;7.03;;
63016;SDS011;50274;45.640;11.756;2022-10-29T15:02:28;17.25;;;7.20;;
63016;SDS011;50274;45.640;11.756;2022-10-29T15:04:59;14.60;;;6.72;;
63016;SDS011;50274;45.640;11.756;2022-10-29T15:07:28;14.60;;;6.97;;
63016;SDS011;50274;45.640;11.756;2022-10-29T15:12:42;15.47;;;7.43;;
63016;SDS011;50274;45.640;11.756;2022-10-29T15:15:28;11.90;;;6.15;;
63016;SDS011;50274;45.640;11.756;2022-10-29T15:22:57;14.10;;;6.90;;
63016;SDS011;50274;45.640;11.756;2022-10-29T15:25:31;13.93;;;8.07;;
63016;SDS011;50274;45.640;11.756;2022-10-29T15:28:00;20.23;;;7.57;;
63016;SDS011;50274;45.640;11.756;2022-10-29T15:30:29;13.88;;;8.07;;
63016;SDS011;50274;45.640;11.756;2022-10-29T15:32:59;16.75;;;8.95;;
63016;SDS011;50274;45.640;11.756;2022-10-29T15:35:26;15.32;;;9.20;;
63016;SDS011;50274;45.640;11.756;2022-10-29T15:37:53;17.87;;;9.60;;
63016;SDS011;50274;45.640;11.756;2022-10-29T15:40:21;19.60;;;10.48;;
63016;SDS011;50274;45.640;11.756;2022-10-29T15:42:50;16.05;;;9.70;;
63016;SDS011;50274;45.640;11.756;2022-10-29T15:45:26;19.38;;;9.55;;
63016;SDS011;50274;45.640;11.756;2022-10-29T15:47:56;16.88;;;9.48;;
63016;SDS011;50274;45.640;11.756;2022-10-29T15:50:40;17.70;;;8.07;;
63016;SDS011;50274;45.640;11.756;2022-10-29T15:53:08;14.30;;;8.27;;
63016;SDS011;50274;45.640;11.756;2022-10-29T15:55:40;22.10;;;9.30;;
63016;SDS011;50274;45.640;11.756;2022-10-29T16:00:40;15.75;;;9.40;;
63016;SDS011;50274;45.640;11.756;2022-10-29T16:05:43;18.00;;;8.60;;
63016;SDS011;50274;45.640;11.756;2022-10-29T16:11:06;14.15;;;7.93;;
63016;SDS011;50274;45.640;11.756;2022-10-29T16:13:37;17.58;;;8.85;;
63016;SDS011;50274;45.640;11.756;2022-10-29T16:16:03;17.53;;;9.13;;
63016;SDS011;50274;45.640;11.756;2022-10-29T16:18:37;14.95;;;7.70;;
63016;SDS011;50274;45.640;11.756;2022-10-29T16:21:06;13.68;;;7.80;;
63016;SDS011;50274;45.640;11.756;2022-10-29T16:23:35;13.48;;;7.40;;
63016;SDS011;50274;45.640;11.756;2022-10-29T16:26:08;16.13;;;7.70;;
63016;SDS011;50274;45.640;11.756;2022-10-29T16:28:44;16.07;;;8.20;;
63016;SDS011;50274;45.640;11.756;2022-10-29T16:31:23;15.30;;;8.40;;
63016;SDS011;50274;45.640;11.756;2022-10-29T16:34:00;15.18;;;8.10;;
63016;SDS011;50274;45.640;11.756;2022-10-29T16:36:28;14.32;;;8.50;;
63016;SDS011;50274;45.640;11.756;2022-10-29T16:38:54;17.50;;;8.75;;
63016;SDS011;50274;45.640;11.756;2022-10-29T16:41:23;16.47;;;8.93;;
63016;SDS011;50274;45.640;11.756;2022-10-29T16:43:54;18.15;;;8.60;;
63016;SDS011;50274;45.640;11.756;2022-10-29T16:46:21;14.57;;;8.32;;
63016;SDS011;50274;45.640;11.756;2022-10-29T16:48:48;18.53;;;7.97;;
63016;SDS011;50274;45.640;11.756;2022-10-29T16:51:15;14.70;;;7.63;;
63016;SDS011;50274;45.640;11.756;2022-10-29T16:53:44;16.77;;;7.68;;
63016;SDS011;50274;45.640;11.756;2022-10-29T16:56:16;16.90;;;7.63;;
63016;SDS011;50274;45.640;11.756;2022-10-29T16:58:44;19.63;;;8.00;;
63016;SDS011;50274;45.640;11.756;2022-10-29T17:01:15;17.20;;;7.80;;
63016;SDS011;50274;45.640;11.756;2022-10-29T17:03:49;13.77;;;7.68;;
63016;SDS011;50274;45.640;11.756;2022-10-29T17:06:16;16.77;;;7.72;;
63016;SDS011;50274;45.640;11.756;2022-10-29T17:08:42;16.13;;;8.85;;
63016;SDS011;50274;45.640;11.756;2022-10-29T17:11:08;19.92;;;8.70;;
63016;SDS011;50274;45.640;11.756;2022-10-29T17:13:34;16.67;;;9.67;;
63016;SDS011;50274;45.640;11.756;2022-10-29T17:16:05;15.60;;;8.82;;
63016;SDS011;50274;45.640;11.756;2022-10-29T17:18:31;16.95;;;9.38;;
63016;SDS011;50274;45.640;11.756;2022-10-29T17:20:58;22.77;;;9.88;;
63016;SDS011;50274;45.640;11.756;2022-10-29T17:23:25;15.85;;;9.43;;
63016;SDS011;50274;45.640;11.756;2022-10-29T17:25:52;17.17;;;9.87;;